sensor_id;sensor_type;location;lat;lon;timestamp;pressure;altitude;pressure_sealevel;temperature;humidity
49341;BME280;35209;51.050;13.678;2022-10-16T00:00:42;99690.41;;;12.33;100.00
49341;BME280;35209;51.050;13.678;2022-10-16T00:05:44;99691.59;;;12.26;100.00
49341;BME280;35209;51.050;13.678;2022-10-16T00:10:45;99690.06;;;12.80;100.00
49341;BME280;35209;51.050;13.678;2022-10-16T00:15:47;99691.69;;;12.63;100.00
49341;BME280;35209;51.050;13.678;2022-10-16T00:20:48;99710.34;;;12.59;100.00
49341;BME280;35209;51.050;13.678;2022-10-16T00:25:58;99709.84;;;12.30;100.00
49341;BME280;35209;51.050;13.678;2022-10-16T00:31:03;99706.91;;;12.18;100.00
49341;BME280;35209;51.050;13.678;2022-10-16T00:36:07;99707.25;;;12.10;100.00
49341;BME280;35209;51.050;13.678;2022-10-16T00:41:12;99715.72;;;12.17;100.00
49341;BME280;35209;51.050;13.678;2022-10-16T00:51:27;99734.25;;;12.15;100.00
49341;BME280;35209;51.050;13.678;2022-10-16T00:56:30;99727.41;;;12.31;100.00
49341;BME280;35209;51.050;13.678;2022-10-16T01:01:31;99727.75;;;12.43;100.00
49341;BME280;35209;51.050;13.678;2022-10-16T01:12:05;99725.63;;;12.32;100.00
49341;BME280;35209;51.050;13.678;2022-10-16T01:17:12;99724.56;;;12.36;100.00
49341;BME280;35209;51.050;13.678;2022-10-16T01:22:16;99743.38;;;12.47;100.00
49341;BME280;35209;51.050;13.678;2022-10-16T01:27:27;99735.47;;;12.47;100.00
49341;BME280;35209;51.050;13.678;2022-10-16T01:42:47;99752.63;;;12.37;100.00
49341;BME280;35209;51.050;13.678;2022-10-16T01:47:50;99749.69;;;12.63;100.00
49341;BME280;35209;51.050;13.678;2022-10-16T01:52:55;99733.03;;;12.82;100.00
49341;BME280;35209;51.050;13.678;2022-10-16T01:57:59;99729.25;;;12.87;100.00
49341;BME280;35209;51.050;13.678;2022-10-16T02:03:03;99740.59;;;12.90;100.00
49341;BME280;35209;51.050;13.678;2022-10-16T02:08:05;99738.38;;;12.80;100.00
49341;BME280;35209;51.050;13.678;2022-10-16T02:13:45;99749.38;;;12.90;100.00
49341;BME280;35209;51.050;13.678;2022-10-16T02:18:48;99759.13;;;12.88;100.00
49341;BME280;35209;51.050;13.678;2022-10-16T02:29:15;99752.72;;;12.94;100.00
49341;BME280;35209;51.050;13.678;2022-10-16T02:34:20;99739.59;;;12.92;100.00
49341;BME280;35209;51.050;13.678;2022-10-16T02:39:23;99752.53;;;13.36;100.00
49341;BME280;35209;51.050;13.678;2022-10-16T02:44:25;99756.72;;;13.21;100.00
49341;BME280;35209;51.050;13.678;2022-10-16T02:49:27;99756.56;;;13.05;100.00
49341;BME280;35209;51.050;13.678;2022-10-16T02:54:28;99745.75;;;13.11;100.00
49341;BME280;35209;51.050;13.678;2022-10-16T02:59:30;99743.59;;;13.01;100.00
49341;BME280;35209;51.050;13.678;2022-10-16T03:04:31;99740.09;;;13.00;100.00
49341;BME280;35209;51.050;13.678;2022-10-16T03:09:33;99740.38;;;12.94;100.00
49341;BME280;35209;51.050;13.678;2022-10-16T03:14:35;99756.56;;;12.86;100.00
49341;BME280;35209;51.050;13.678;2022-10-16T03:19:36;99758.63;;;12.80;100.00
49341;BME280;35209;51.050;13.678;2022-10-16T03:24:38;99768.34;;;12.98;100.00
49341;BME280;35209;51.050;13.678;2022-10-16T03:29:40;99770.13;;;13.17;100.00
49341;BME280;35209;51.050;13.678;2022-10-16T03:34:41;99776.00;;;13.23;100.00
49341;BME280;35209;51.050;13.678;2022-10-16T03:39:43;99771.31;;;13.09;100.00
49341;BME280;35209;51.050;13.678;2022-10-16T03:44:44;99767.34;;;13.01;100.00
49341;BME280;35209;51.050;13.678;2022-10-16T03:49:46;99781.09;;;12.88;100.00
49341;BME280;35209;51.050;13.678;2022-10-16T03:54:47;99779.75;;;12.80;100.00
49341;BME280;35209;51.050;13.678;2022-10-16T03:59:49;99785.47;;;12.69;100.00
49341;BME280;35209;51.050;13.678;2022-10-16T04:04:51;99785.31;;;12.93;100.00
49341;BME280;35209;51.050;13.678;2022-10-16T04:09:52;99786.84;;;12.78;100.00
49341;BME280;35209;51.050;13.678;2022-10-16T04:14:54;99804.31;;;12.80;100.00
49341;BME280;35209;51.050;13.678;2022-10-16T04:19:56;99801.63;;;12.61;100.00
49341;BME280;35209;51.050;13.678;2022-10-16T04:24:57;99803.38;;;12.62;100.00
49341;BME280;35209;51.050;13.678;2022-10-16T04:29:59;99788.09;;;12.69;100.00
49341;BME280;35209;51.050;13.678;2022-10-16T04:35:01;99795.63;;;12.78;100.00
49341;BME280;35209;51.050;13.678;2022-10-16T04:40:03;99804.69;;;12.92;100.00
49341;BME280;35209;51.050;13.678;2022-10-16T04:45:05;99800.34;;;12.91;100.00
49341;BME280;35209;51.050;13.678;2022-10-16T04:50:07;99813.22;;;12.78;100.00
49341;BME280;35209;51.050;13.678;2022-10-16T04:55:09;99817.03;;;12.91;100.00
49341;BME280;35209;51.050;13.678;2022-10-16T05:00:11;99798.13;;;12.81;100.00
49341;BME280;35209;51.050;13.678;2022-10-16T05:05:13;99807.38;;;12.71;100.00
49341;BME280;35209;51.050;13.678;2022-10-16T05:10:16;99821.75;;;13.03;100.00
49341;BME280;35209;51.050;13.678;2022-10-16T05:15:18;99818.28;;;13.03;100.00
49341;BME280;35209;51.050;13.678;2022-10-16T05:20:19;99820.06;;;13.02;100.00
49341;BME280;35209;51.050;13.678;2022-10-16T05:25:21;99829.84;;;12.80;100.00
49341;BME280;35209;51.050;13.678;2022-10-16T05:30:23;99836.44;;;12.70;100.00
49341;BME280;35209;51.050;13.678;2022-10-16T05:35:24;99833.13;;;12.85;100.00
49341;BME280;35209;51.050;13.678;2022-10-16T05:40:26;99819.31;;;12.99;100.00
49341;BME280;35209;51.050;13.678;2022-10-16T05:45:28;99836.88;;;13.19;100.00
49341;BME280;35209;51.050;13.678;2022-10-16T05:50:29;99843.84;;;13.01;100.00
49341;BME280;35209;51.050;13.678;2022-10-16T05:55:31;99859.38;;;12.88;100.00
49341;BME280;35209;51.050;13.678;2022-10-16T06:00:32;99858.31;;;12.92;100.00
49341;BME280;35209;51.050;13.678;2022-10-16T06:05:34;99860.28;;;13.07;100.00
49341;BME280;35209;51.050;13.678;2022-10-16T06:10:35;99859.22;;;13.11;100.00
49341;BME280;35209;51.050;13.678;2022-10-16T06:15:38;99870.50;;;13.15;100.00
49341;BME280;35209;51.050;13.678;2022-10-16T06:20:40;99886.03;;;13.02;100.00
49341;BME280;35209;51.050;13.678;2022-10-16T06:25:41;99896.94;;;13.34;100.00
49341;BME280;35209;51.050;13.678;2022-10-16T06:30:43;99898.38;;;13.41;100.00
49341;BME280;35209;51.050;13.678;2022-10-16T06:35:45;99906.75;;;13.70;100.00
49341;BME280;35209;51.050;13.678;2022-10-16T06:40:46;99906.09;;;13.83;100.00
49341;BME280;35209;51.050;13.678;2022-10-16T06:45:54;99909.78;;;13.98;100.00
49341;BME280;35209;51.050;13.678;2022-10-16T06:50:58;99911.34;;;14.21;100.00
49341;BME280;35209;51.050;13.678;2022-10-16T06:56:12;99920.44;;;14.33;100.00
49341;BME280;35209;51.050;13.678;2022-10-16T07:01:15;99927.94;;;14.42;100.00
49341;BME280;35209;51.050;13.678;2022-10-16T07:06:20;99927.13;;;14.59;100.00
49341;BME280;35209;51.050;13.678;2022-10-16T07:11:23;99935.63;;;14.47;100.00
49341;BME280;35209;51.050;13.678;2022-10-16T07:16:30;99931.38;;;14.44;100.00
49341;BME280;35209;51.050;13.678;2022-10-16T07:21:33;99951.19;;;14.89;100.00
49341;BME280;35209;51.050;13.678;2022-10-16T07:26:38;99964.72;;;15.00;100.00
49341;BME280;35209;51.050;13.678;2022-10-16T07:31:41;99981.31;;;15.04;100.00
49341;BME280;35209;51.050;13.678;2022-10-16T07:36:43;99992.28;;;14.96;100.00
49341;BME280;35209;51.050;13.678;2022-10-16T07:41:44;99996.34;;;15.03;100.00
49341;BME280;35209;51.050;13.678;2022-10-16T07:46:46;100002.47;;;15.04;100.00
49341;BME280;35209;51.050;13.678;2022-10-16T07:51:48;100004.59;;;15.32;100.00
49341;BME280;35209;51.050;13.678;2022-10-16T07:56:49;100001.03;;;15.66;100.00
49341;BME280;35209;51.050;13.678;2022-10-16T08:01:51;99998.78;;;15.92;100.00
49341;BME280;35209;51.050;13.678;2022-10-16T08:06:53;99979.06;;;16.13;100.00
49341;BME280;35209;51.050;13.678;2022-10-16T08:11:55;99973.84;;;16.27;100.00
49341;BME280;35209;51.050;13.678;2022-10-16T08:17:02;99994.63;;;16.35;100.00
49341;BME280;35209;51.050;13.678;2022-10-16T08:22:05;99991.44;;;16.28;100.00
49341;BME280;35209;51.050;13.678;2022-10-16T08:27:07;99988.38;;;16.52;100.00
49341;BME280;35209;51.050;13.678;2022-10-16T08:32:10;100000.19;;;16.78;100.00
49341;BME280;35209;51.050;13.678;2022-10-16T08:37:11;100007.41;;;16.90;100.00
49341;BME280;35209;51.050;13.678;2022-10-16T08:53:15;100007.53;;;17.33;99.97
49341;BME280;35209;51.050;13.678;2022-10-16T08:58:20;99999.78;;;17.73;95.48
49341;BME280;35209;51.050;13.678;2022-10-16T09:14:50;99991.06;;;17.99;91.85
49341;BME280;35209;51.050;13.678;2022-10-16T09:20:09;99990.53;;;18.35;89.68
49341;BME280;35209;51.050;13.678;2022-10-16T09:25:16;100018.53;;;18.55;90.89
49341;BME280;35209;51.050;13.678;2022-10-16T09:30:19;100006.66;;;19.01;85.81
49341;BME280;35209;51.050;13.678;2022-10-16T09:35:27;100018.56;;;19.35;79.09
49341;BME280;35209;51.050;13.678;2022-10-16T09:40:37;100015.59;;;19.65;79.65
49341;BME280;35209;51.050;13.678;2022-10-16T09:45:39;100022.44;;;19.82;75.84
49341;BME280;35209;51.050;13.678;2022-10-16T09:50:41;100019.69;;;19.83;77.49
49341;BME280;35209;51.050;13.678;2022-10-16T09:55:50;100031.28;;;20.08;74.25
49341;BME280;35209;51.050;13.678;2022-10-16T10:00:54;100032.25;;;20.44;75.16
49341;BME280;35209;51.050;13.678;2022-10-16T10:05:56;100029.78;;;21.01;68.76
49341;BME280;35209;51.050;13.678;2022-10-16T10:11:02;100025.78;;;20.96;70.98
49341;BME280;35209;51.050;13.678;2022-10-16T10:16:06;100039.69;;;20.88;69.74
49341;BME280;35209;51.050;13.678;2022-10-16T10:21:14;100049.34;;;21.02;68.54
49341;BME280;35209;51.050;13.678;2022-10-16T10:26:22;100051.97;;;21.38;66.55
49341;BME280;35209;51.050;13.678;2022-10-16T10:31:47;100052.47;;;21.55;65.65
49341;BME280;35209;51.050;13.678;2022-10-16T10:37:25;100056.59;;;21.48;65.21
49341;BME280;35209;51.050;13.678;2022-10-16T10:42:36;100055.53;;;21.61;66.21
49341;BME280;35209;51.050;13.678;2022-10-16T11:08:35;100066.19;;;23.28;55.79
49341;BME280;35209;51.050;13.678;2022-10-16T11:13:55;100065.41;;;22.62;59.83
49341;BME280;35209;51.050;13.678;2022-10-16T11:29:28;100066.28;;;22.06;59.34
49341;BME280;35209;51.050;13.678;2022-10-16T11:34:47;100061.28;;;21.79;61.04
49341;BME280;35209;51.050;13.678;2022-10-16T11:39:54;100074.53;;;21.81;61.82
49341;BME280;35209;51.050;13.678;2022-10-16T11:50:25;100074.72;;;21.55;63.29
49341;BME280;35209;51.050;13.678;2022-10-16T11:55:39;100095.41;;;21.64;62.72
49341;BME280;35209;51.050;13.678;2022-10-16T12:00:53;100097.94;;;22.01;63.17
49341;BME280;35209;51.050;13.678;2022-10-16T12:06:20;100085.31;;;22.14;60.03
49341;BME280;35209;51.050;13.678;2022-10-16T12:16:29;100091.94;;;22.09;58.99
49341;BME280;35209;51.050;13.678;2022-10-16T12:21:31;100097.78;;;22.03;59.51
49341;BME280;35209;51.050;13.678;2022-10-16T12:26:36;100093.41;;;22.02;58.62
49341;BME280;35209;51.050;13.678;2022-10-16T12:31:45;100101.72;;;22.10;59.41
49341;BME280;35209;51.050;13.678;2022-10-16T12:37:10;100106.94;;;22.00;60.83
49341;BME280;35209;51.050;13.678;2022-10-16T12:52:37;100115.38;;;22.40;58.97
49341;BME280;35209;51.050;13.678;2022-10-16T12:58:09;100115.22;;;22.64;60.59
49341;BME280;35209;51.050;13.678;2022-10-16T13:03:40;100119.59;;;22.77;58.11
49341;BME280;35209;51.050;13.678;2022-10-16T13:20:03;100119.50;;;22.33;57.98
49341;BME280;35209;51.050;13.678;2022-10-16T13:30:51;100116.13;;;21.85;61.76
49341;BME280;35209;51.050;13.678;2022-10-16T13:35:56;100124.94;;;21.52;65.71
49341;BME280;35209;51.050;13.678;2022-10-16T13:41:14;100121.41;;;21.03;72.82
49341;BME280;35209;51.050;13.678;2022-10-16T13:46:18;100125.03;;;20.65;79.27
49341;BME280;35209;51.050;13.678;2022-10-16T13:51:19;100135.41;;;20.57;82.18
49341;BME280;35209;51.050;13.678;2022-10-16T13:56:22;100132.81;;;20.81;81.16
49341;BME280;35209;51.050;13.678;2022-10-16T14:01:34;100137.53;;;20.78;83.78
49341;BME280;35209;51.050;13.678;2022-10-16T14:06:43;100136.81;;;20.63;84.96
49341;BME280;35209;51.050;13.678;2022-10-16T14:12:00;100139.69;;;20.60;87.22
49341;BME280;35209;51.050;13.678;2022-10-16T14:17:03;100146.53;;;20.64;85.68
49341;BME280;35209;51.050;13.678;2022-10-16T14:22:22;100151.56;;;20.30;91.30
49341;BME280;35209;51.050;13.678;2022-10-16T14:27:36;100149.94;;;20.40;87.85
49341;BME280;35209;51.050;13.678;2022-10-16T14:32:40;100153.91;;;20.35;87.79
49341;BME280;35209;51.050;13.678;2022-10-16T14:37:43;100148.47;;;20.36;84.81
49341;BME280;35209;51.050;13.678;2022-10-16T14:42:46;100153.06;;;20.22;85.46
49341;BME280;35209;51.050;13.678;2022-10-16T14:47:50;100154.13;;;20.06;88.57
49341;BME280;35209;51.050;13.678;2022-10-16T14:52:53;100161.50;;;20.03;89.78
49341;BME280;35209;51.050;13.678;2022-10-16T14:57:55;100164.28;;;20.01;89.58
49341;BME280;35209;51.050;13.678;2022-10-16T15:03:01;100178.03;;;19.95;90.88
49341;BME280;35209;51.050;13.678;2022-10-16T15:08:03;100187.34;;;20.28;92.06
49341;BME280;35209;51.050;13.678;2022-10-16T15:13:06;100183.88;;;20.00;92.41
49341;BME280;35209;51.050;13.678;2022-10-16T15:18:07;100190.41;;;19.83;93.58
49341;BME280;35209;51.050;13.678;2022-10-16T15:23:20;100201.13;;;19.69;94.17
49341;BME280;35209;51.050;13.678;2022-10-16T15:28:24;100205.84;;;19.51;91.99
49341;BME280;35209;51.050;13.678;2022-10-16T15:33:27;100201.34;;;19.39;93.51
49341;BME280;35209;51.050;13.678;2022-10-16T15:38:39;100210.41;;;19.22;93.98
49341;BME280;35209;51.050;13.678;2022-10-16T15:43:40;100226.59;;;19.19;93.80
49341;BME280;35209;51.050;13.678;2022-10-16T15:48:42;100226.34;;;19.09;98.94
49341;BME280;35209;51.050;13.678;2022-10-16T15:53:44;100221.63;;;18.86;100.00
49341;BME280;35209;51.050;13.678;2022-10-16T15:58:47;100227.50;;;18.91;100.00
49341;BME280;35209;51.050;13.678;2022-10-16T16:03:53;100232.63;;;18.65;100.00
49341;BME280;35209;51.050;13.678;2022-10-16T16:08:54;100238.13;;;18.48;100.00
49341;BME280;35209;51.050;13.678;2022-10-16T16:13:56;100241.25;;;18.26;100.00
49341;BME280;35209;51.050;13.678;2022-10-16T16:18:58;100246.19;;;18.32;100.00
49341;BME280;35209;51.050;13.678;2022-10-16T16:23:59;100251.91;;;17.96;100.00
49341;BME280;35209;51.050;13.678;2022-10-16T16:29:03;100260.09;;;17.61;100.00
49341;BME280;35209;51.050;13.678;2022-10-16T16:34:05;100279.88;;;17.87;100.00
49341;BME280;35209;51.050;13.678;2022-10-16T16:39:07;100295.88;;;17.40;100.00
49341;BME280;35209;51.050;13.678;2022-10-16T16:44:10;100295.25;;;17.35;100.00
49341;BME280;35209;51.050;13.678;2022-10-16T16:49:13;100309.56;;;17.32;100.00
49341;BME280;35209;51.050;13.678;2022-10-16T16:54:15;100304.91;;;17.04;100.00
49341;BME280;35209;51.050;13.678;2022-10-16T16:59:19;100316.25;;;17.24;100.00
49341;BME280;35209;51.050;13.678;2022-10-16T17:04:23;100327.63;;;17.10;100.00
49341;BME280;35209;51.050;13.678;2022-10-16T17:09:24;100334.00;;;16.90;100.00
49341;BME280;35209;51.050;13.678;2022-10-16T17:14:26;100338.69;;;16.68;100.00
49341;BME280;35209;51.050;13.678;2022-10-16T17:19:28;100336.44;;;16.60;100.00
49341;BME280;35209;51.050;13.678;2022-10-16T17:24:29;100349.03;;;16.56;100.00
49341;BME280;35209;51.050;13.678;2022-10-16T17:29:31;100354.00;;;16.45;100.00
49341;BME280;35209;51.050;13.678;2022-10-16T17:34:33;100352.81;;;16.33;100.00
49341;BME280;35209;51.050;13.678;2022-10-16T17:39:35;100365.53;;;16.27;100.00
49341;BME280;35209;51.050;13.678;2022-10-16T17:44:37;100366.16;;;16.14;100.00
49341;BME280;35209;51.050;13.678;2022-10-16T17:49:39;100380.19;;;15.99;100.00
49341;BME280;35209;51.050;13.678;2022-10-16T17:54:41;100381.13;;;15.98;100.00
49341;BME280;35209;51.050;13.678;2022-10-16T17:59:42;100391.31;;;15.70;100.00
49341;BME280;35209;51.050;13.678;2022-10-16T18:04:44;100399.28;;;15.49;100.00
49341;BME280;35209;51.050;13.678;2022-10-16T18:09:46;100410.50;;;15.35;100.00
49341;BME280;35209;51.050;13.678;2022-10-16T18:15:08;100413.56;;;15.26;100.00
49341;BME280;35209;51.050;13.678;2022-10-16T18:20:11;100406.38;;;15.30;100.00
49341;BME280;35209;51.050;13.678;2022-10-16T18:25:12;100417.16;;;15.25;100.00
49341;BME280;35209;51.050;13.678;2022-10-16T18:30:14;100427.56;;;15.30;100.00
49341;BME280;35209;51.050;13.678;2022-10-16T18:35:16;100443.41;;;15.50;100.00
49341;BME280;35209;51.050;13.678;2022-10-16T18:40:18;100439.72;;;15.34;100.00
49341;BME280;35209;51.050;13.678;2022-10-16T18:45:20;100436.44;;;15.29;100.00
49341;BME280;35209;51.050;13.678;2022-10-16T18:50:21;100439.50;;;15.20;100.00
49341;BME280;35209;51.050;13.678;2022-10-16T18:55:23;100441.00;;;15.05;100.00
49341;BME280;35209;51.050;13.678;2022-10-16T19:00:32;100436.84;;;14.99;100.00
49341;BME280;35209;51.050;13.678;2022-10-16T19:05:33;100445.31;;;14.87;100.00
49341;BME280;35209;51.050;13.678;2022-10-16T19:10:36;100430.91;;;14.94;100.00
49341;BME280;35209;51.050;13.678;2022-10-16T19:15:41;100449.19;;;15.39;100.00
49341;BME280;35209;51.050;13.678;2022-10-16T19:20:53;100453.59;;;15.20;100.00
49341;BME280;35209;51.050;13.678;2022-10-16T19:25:55;100457.91;;;15.02;100.00
49341;BME280;35209;51.050;13.678;2022-10-16T19:31:01;100468.41;;;15.04;100.00
49341;BME280;35209;51.050;13.678;2022-10-16T19:41:10;100470.88;;;15.08;100.00
49341;BME280;35209;51.050;13.678;2022-10-16T19:46:15;100473.25;;;15.14;100.00
49341;BME280;35209;51.050;13.678;2022-10-16T19:51:18;100485.56;;;14.95;100.00
49341;BME280;35209;51.050;13.678;2022-10-16T19:56:21;100488.47;;;14.89;100.00
49341;BME280;35209;51.050;13.678;2022-10-16T20:01:25;100483.19;;;14.89;100.00
49341;BME280;35209;51.050;13.678;2022-10-16T20:06:27;100487.28;;;14.96;100.00
49341;BME280;35209;51.050;13.678;2022-10-16T20:11:31;100481.28;;;14.93;100.00
49341;BME280;35209;51.050;13.678;2022-10-16T20:16:33;100484.63;;;15.17;100.00
49341;BME280;35209;51.050;13.678;2022-10-16T20:21:35;100490.00;;;15.15;100.00
49341;BME280;35209;51.050;13.678;2022-10-16T20:26:36;100485.81;;;15.09;100.00
49341;BME280;35209;51.050;13.678;2022-10-16T20:31:39;100488.47;;;15.30;100.00
49341;BME280;35209;51.050;13.678;2022-10-16T20:36:40;100503.56;;;15.28;100.00
49341;BME280;35209;51.050;13.678;2022-10-16T20:41:43;100505.03;;;15.14;100.00
49341;BME280;35209;51.050;13.678;2022-10-16T20:46:45;100510.66;;;15.07;100.00
49341;BME280;35209;51.050;13.678;2022-10-16T20:51:47;100512.69;;;15.00;100.00
49341;BME280;35209;51.050;13.678;2022-10-16T20:56:50;100509.84;;;15.05;100.00
49341;BME280;35209;51.050;13.678;2022-10-16T21:01:53;100527.41;;;15.07;100.00
49341;BME280;35209;51.050;13.678;2022-10-16T21:06:55;100538.47;;;14.75;100.00
49341;BME280;35209;51.050;13.678;2022-10-16T21:11:56;100541.44;;;14.67;100.00
49341;BME280;35209;51.050;13.678;2022-10-16T21:16:58;100537.25;;;14.61;100.00
49341;BME280;35209;51.050;13.678;2022-10-16T21:22:01;100546.09;;;14.60;100.00
49341;BME280;35209;51.050;13.678;2022-10-16T21:27:03;100549.06;;;14.53;100.00
49341;BME280;35209;51.050;13.678;2022-10-16T21:32:04;100558.41;;;14.38;100.00
49341;BME280;35209;51.050;13.678;2022-10-16T21:37:06;100557.34;;;14.20;100.00
49341;BME280;35209;51.050;13.678;2022-10-16T21:42:08;100570.50;;;13.98;100.00
49341;BME280;35209;51.050;13.678;2022-10-16T21:47:09;100568.59;;;14.03;100.00
49341;BME280;35209;51.050;13.678;2022-10-16T21:52:11;100569.78;;;14.18;100.00
49341;BME280;35209;51.050;13.678;2022-10-16T21:57:13;100565.28;;;13.97;100.00
49341;BME280;35209;51.050;13.678;2022-10-16T22:02:14;100565.75;;;13.84;100.00
49341;BME280;35209;51.050;13.678;2022-10-16T22:07:16;100558.56;;;13.65;100.00
49341;BME280;35209;51.050;13.678;2022-10-16T22:12:18;100557.47;;;13.45;100.00
49341;BME280;35209;51.050;13.678;2022-10-16T22:17:20;100567.50;;;13.35;100.00
49341;BME280;35209;51.050;13.678;2022-10-16T22:22:21;100576.50;;;13.55;100.00
49341;BME280;35209;51.050;13.678;2022-10-16T22:27:23;100579.72;;;13.63;100.00
49341;BME280;35209;51.050;13.678;2022-10-16T22:32:25;100575.50;;;13.32;100.00
49341;BME280;35209;51.050;13.678;2022-10-16T22:37:27;100582.22;;;13.16;100.00
49341;BME280;35209;51.050;13.678;2022-10-16T22:42:29;100583.31;;;13.09;100.00
49341;BME280;35209;51.050;13.678;2022-10-16T22:47:30;100574.78;;;13.29;100.00
49341;BME280;35209;51.050;13.678;2022-10-16T22:52:32;100574.09;;;13.22;100.00
49341;BME280;35209;51.050;13.678;2022-10-16T22:57:34;100579.56;;;13.43;100.00
49341;BME280;35209;51.050;13.678;2022-10-16T23:02:35;100576.72;;;13.24;100.00
49341;BME280;35209;51.050;13.678;2022-10-16T23:07:37;100578.31;;;13.28;100.00
49341;BME280;35209;51.050;13.678;2022-10-16T23:12:39;100587.34;;;13.21;100.00
49341;BME280;35209;51.050;13.678;2022-10-16T23:17:40;100595.00;;;13.02;100.00
49341;BME280;35209;51.050;13.678;2022-10-16T23:22:42;100593.84;;;12.84;100.00
49341;BME280;35209;51.050;13.678;2022-10-16T23:27:44;100595.91;;;13.01;100.00
49341;BME280;35209;51.050;13.678;2022-10-16T23:32:46;100607.91;;;13.11;100.00
49341;BME280;35209;51.050;13.678;2022-10-16T23:37:48;100599.28;;;13.06;100.00
49341;BME280;35209;51.050;13.678;2022-10-16T23:42:49;100607.75;;;13.16;100.00
49341;BME280;35209;51.050;13.678;2022-10-16T23:47:51;100604.56;;;13.06;100.00
49341;BME280;35209;51.050;13.678;2022-10-16T23:52:52;100607.75;;;12.87;100.00
49341;BME280;35209;51.050;13.678;2022-10-16T23:57:54;100600.56;;;12.66;100.00
